DW2802 Ogijares ES current weather conditions

sailwx.info

Wind from 236 at 1 knots gusting 6

Air temperature 10.0° C
Dewpoint 8.1° C

Last reported at 2015-Apr-27 02:37 UTC.
Time now 2015-Apr-27 04:05 UTC

Location: N 37°07' W 003°36'.
View on Google Maps.

See reports from other nearby stations

  
Tides and Currents Weather Stations Pressure Air Temp Water Temp Dewpoint Dewpoint Depression Visibility Wind Speed Wind Dir Waves Ship Positions
date/time (UTC)wind fromknots sea level pressurealtimeterstation pressurevisibilityair tempwater tempwave heightnotes
2015-Apr-27 03:38 273 4 gusting 8 9.4
2015-Apr-27 03:23 269 9.4
2015-Apr-27 03:07 249 10.0
2015-Apr-27 02:52 262 1 gusting 8 10.0
2015-Apr-27 02:37 236 1 gusting 6 10.0
2015-Apr-27 02:22 265 10.0
2015-Apr-27 02:07 282 4 gusting 8 10.0
2015-Apr-27 01:52 298 2 gusting 9 10.0
2015-Apr-27 01:37 267 3 gusting 10 10.0
2015-Apr-27 01:22 283 10.0
2015-Apr-27 01:07 277 4 gusting 9 10.0
2015-Apr-27 00:52 275 0 gusting 5 10.0
2015-Apr-27 00:37 236 0 gusting 12 10.0
2015-Apr-27 00:22 258 10.0
2015-Apr-27 00:07 323 0 gusting 6 10.6
2015-Apr-26 23:52 344 10.0
2015-Apr-26 23:37 355 1 gusting 3 10.6
2015-Apr-26 23:22 306 5 gusting 13 10.6
2015-Apr-26 23:07 283 2 gusting 6 11.7
2015-Apr-26 22:52 331 11.7
2015-Apr-26 22:37 324 1 gusting 5 11.7
2015-Apr-26 22:22 247 11.7
2015-Apr-26 22:07 244 1 gusting 7 11.7
2015-Apr-26 21:52 254 3 gusting 7 12.2
2015-Apr-26 21:37 189 12.2
2015-Apr-26 21:22 189 12.8
2015-Apr-26 21:07 189 12.8
2015-Apr-26 20:52 189 12.8
2015-Apr-26 20:37 189 1 gusting 5 12.8
2015-Apr-26 20:22 199 4 gusting 8 12.8
2015-Apr-26 20:07 218 13.3
2015-Apr-26 19:52 247 13.3
2015-Apr-26 19:37 248 13.3
2015-Apr-26 19:22 247 13.3
2015-Apr-26 19:07 253 5 gusting 7 13.3
2015-Apr-26 18:52 233 1 gusting 5 13.9
2015-Apr-26 18:37 259 3 gusting 8 14.4
2015-Apr-26 18:22 262 6 gusting 13 15.0
2015-Apr-26 18:07 281 2 gusting 13 15.0
2015-Apr-26 17:52 284 8 gusting 13 15.6
2015-Apr-26 17:37 285 6 gusting 13 15.6
2015-Apr-26 17:22 252 4 gusting 7 15.6
2015-Apr-26 17:07 016 3 gusting 6 15.0
2015-Apr-26 16:52 029 3 gusting 8 14.4
2015-Apr-26 16:37 355 13.9
2015-Apr-26 16:22 315 1 gusting 6 13.3
2015-Apr-26 16:07 250 6 gusting 12 13.9
2015-Apr-26 15:52 238 12 gusting 22 13.9
2015-Apr-26 15:37 257 10 gusting 14 14.4
2015-Apr-26 15:22 236 5 gusting 9 14.4
2015-Apr-26 15:07 205 7 gusting 13 14.4
2015-Apr-26 14:52 232 7 gusting 18 14.4
2015-Apr-26 14:37 200 6 gusting 13 15.0
2015-Apr-26 14:22 205 8 gusting 16 15.6
2015-Apr-26 14:07 205 8 gusting 18 16.1
2015-Apr-26 13:51 199 6 gusting 18 16.1
2015-Apr-26 13:36 236 6 gusting 15 15.0
2015-Apr-26 13:21 221 6 gusting 14 14.4
2015-Apr-26 13:06 204 7 gusting 12 14.4
2015-Apr-26 12:51 237 7 gusting 13 15.0
2015-Apr-26 12:36 209 5 gusting 10 15.0
2015-Apr-26 12:21 219 6 gusting 14 15.0
2015-Apr-26 12:06 190 9 gusting 15 15.0
2015-Apr-26 11:51 231 6 gusting 11 14.4
2015-Apr-26 11:36 205 4 gusting 6 13.9
2015-Apr-26 11:21 251 0 gusting 5 13.9
2015-Apr-26 11:06 252 13.3
2015-Apr-26 10:51 278 4 gusting 8 13.9
2015-Apr-26 10:36 194 2 gusting 5 14.4
2015-Apr-26 10:21 153 2 gusting 7 14.4
2015-Apr-26 10:06 175 6 gusting 9 15.0
2015-Apr-26 09:51 209 4 gusting 13 15.6
2015-Apr-26 09:36 225 1 gusting 6 16.1
2015-Apr-26 09:21 191 2 gusting 5 16.1
2015-Apr-26 09:06 229 3 gusting 7 16.7
2015-Apr-26 08:51 329 15.6
2015-Apr-26 08:36 246 15.6
2015-Apr-26 08:21 288 14.4
2015-Apr-26 08:06 106 13.9
2015-Apr-26 07:51 106 13.9
2015-Apr-26 07:36 098 13.3
2015-Apr-26 07:20 072 12.8
2015-Apr-26 07:05 220 12.8
2015-Apr-26 06:50 220 12.2
2015-Apr-26 06:35 220 12.2
2015-Apr-26 06:20 220 12.2
2015-Apr-26 06:05 220 12.2
2015-Apr-26 05:50 240 12.2
2015-Apr-26 05:35 263 12.2
2015-Apr-26 05:20 264 12.2
2015-Apr-26 05:05 245 12.8
2015-Apr-26 04:50 234 12.8
2015-Apr-26 04:35 267 12.8
2015-Apr-26 04:20 267 12.8
2015-Apr-26 04:05 267 12.8
2015-Apr-26 03:50 267 12.8
2015-Apr-26 03:35 266 12.8
2015-Apr-26 03:20 171 12.8
2015-Apr-26 03:05 171 12.8
2015-Apr-26 02:50 171 12.8
2015-Apr-26 02:35 171 12.8
2015-Apr-26 02:20 171 12.8
2015-Apr-26 02:05 171 12.8
2015-Apr-26 01:50 171 12.8
2015-Apr-26 01:35 171 12.8
2015-Apr-26 01:20 176 12.8
2015-Apr-26 01:05 186 12.8
2015-Apr-26 00:50 219 12.8
2015-Apr-26 00:35 219 13.3
2015-Apr-26 00:20 219 13.3
2015-Apr-26 00:05 219 13.3
2015-Apr-25 23:50 219 13.3
2015-Apr-25 23:35 246 13.3
2015-Apr-25 23:20 250 13.3
2015-Apr-25 23:05 264 13.9
2015-Apr-25 22:50 209 13.9
2015-Apr-25 22:35 209 13.9
2015-Apr-25 22:20 209 13.9
2015-Apr-25 22:05 212 14.4
2015-Apr-25 21:50 220 14.4
2015-Apr-25 21:34 221 15.0
2015-Apr-25 21:19 271 15.0
2015-Apr-25 21:04 257 15.6
2015-Apr-25 20:49 273 15.6
2015-Apr-25 20:34 265 3 gusting 7 15.6
2015-Apr-25 20:19 251 3 gusting 6 15.6
2015-Apr-25 20:04 234 2 gusting 7 16.1
2015-Apr-25 19:49 234 16.1
2015-Apr-25 19:34 234 16.7
2015-Apr-25 19:19 275 16.7
2015-Apr-25 19:04 265 4 gusting 10 16.7
2015-Apr-25 18:49 300 4 gusting 7 17.2
2015-Apr-25 18:34 277 4 gusting 6 17.2
2015-Apr-25 18:19 305 3 gusting 10 17.2
2015-Apr-25 18:04 304 2 gusting 10 17.8
2015-Apr-25 17:49 259 6 gusting 12 17.8
2015-Apr-25 17:34 273 7 gusting 13 17.8
2015-Apr-25 17:19 280 7 gusting 11 18.3
2015-Apr-25 17:04 294 5 gusting 9 18.3
2015-Apr-25 16:49 275 4 gusting 10 18.9
2015-Apr-25 16:34 311 6 gusting 12 18.9
2015-Apr-25 16:19 294 9 gusting 13 19.4
2015-Apr-25 16:04 295 6 gusting 12 20.0
2015-Apr-25 15:49 285 6 gusting 12 20.6
2015-Apr-25 15:34 307 6 gusting 10 20.6
2015-Apr-25 15:19 266 2 gusting 9 20.0
2015-Apr-25 15:04 304 3 gusting 9 20.0
2015-Apr-25 14:49 313 6 gusting 10 20.0
2015-Apr-25 14:34 246 6 gusting 10 19.4
2015-Apr-25 14:19 258 4 gusting 13 20.0
2015-Apr-25 14:04 355 2 gusting 9 20.6
2015-Apr-25 13:49 304 5 gusting 9 20.0
2015-Apr-25 13:34 234 19.4
2015-Apr-25 13:19 298 2 gusting 7 19.4
2015-Apr-25 13:04 350 1 gusting 9 19.4
2015-Apr-25 12:49 329 3 gusting 6 18.9
2015-Apr-25 12:34 298 1 gusting 6 19.4
2015-Apr-25 12:19 238 18.9
2015-Apr-25 12:04 031 3 gusting 7 18.3
2015-Apr-25 11:49 005 1 gusting 5 18.3
2015-Apr-25 11:34 327 17.8
2015-Apr-25 11:19 279 1 gusting 6 17.2
2015-Apr-25 11:04 286 1 gusting 4 17.2
2015-Apr-25 10:49 298 2 gusting 6 17.2
2015-Apr-25 10:34 323 16.7
2015-Apr-25 10:19 080 16.7
2015-Apr-25 10:04 283 0 gusting 4 16.1
2015-Apr-25 09:48 281 15.6
2015-Apr-25 09:33 281 1 gusting 4 15.0
2015-Apr-25 09:18 273 14.4
2015-Apr-25 09:03 263 0 gusting 5 14.4
2015-Apr-25 08:48 259 14.4
2015-Apr-25 08:33 246 13.3
2015-Apr-25 08:18 246 13.3
2015-Apr-25 08:03 246 12.8
2015-Apr-25 07:48 246 12.2
2015-Apr-25 07:33 246 12.2
2015-Apr-25 07:18 246 0 gusting 4 11.7
2015-Apr-25 07:03 152 11.1
2015-Apr-25 06:48 152 10.6
2015-Apr-25 06:33 152 10.6
2015-Apr-25 06:18 152 10.0
2015-Apr-25 06:03 152 10.0
2015-Apr-25 05:48 152 10.0
2015-Apr-25 05:33 152 9.4
2015-Apr-25 05:18 152 9.4
2015-Apr-25 05:03 152 9.4
2015-Apr-25 04:48 152 10.0
2015-Apr-25 04:33 152 10.0
2015-Apr-25 04:18 152 10.0
2015-Apr-25 04:03 152 10.0